Terminal Aerodrome Forecast
Issued by NWS

Home | Current Version | Previous Version | Text Only | Print | Product List | Glossary On
Versions: 1 2 3 4 5 6 7 8 9 10 11 12 13 14 15 16 17
000
FTUS43 KAPX 300500
TAFTVC
TAF
KTVC 300522Z 3006/0106 34010KT 6SM BR OVC012
      TEMPO 3006/3010 5SM -DZ BR OVC008
     FM301500 02009KT P6SM OVC015
     FM302000 03005KT P6SM BKN025=

USA.gov is the U.S. government's official web portal to all federal, state and local government web resources and services.